UAE256 MMMX-LEBL
Flight info
| Callsign | UAE256 |
|---|---|
| Flight time | N/A |
| Altitude | 35000 |
| Route | IKLAN3B IKLAN UT140 TAM UM575 CLONN M575 WAHOO DCT HRV Q56 KELLN Q58 GLOVR DCT RDU DCT ORF DCT ZIBUT/M083F370 DCT DRYED DCT 40N060W 42N050W 4230N04000W 43N030W/M083F390 4330N02000W DCT RETEN/N0483F390 DCT STG DCT SUSOS DCT NUBLO DCT NEDUS DCT RATAS DCT DGO DCT VASUM DCT YAKXU DCT ELSAP/N0482F400 N725 LOBAR |
| Aircraft | B77L/H-SDE1E2E3FGHIJ2J3J4J5M1RWXY/LB1D1 |
Departure
| Time | N/A |
|---|---|
| Airport | Mexico City Benito Juárez International Airport (MMMX) |
Arrival
| Time | 2026-05-04 11:24 |
|---|---|
| Airport | Josep Tarradellas Barcelona-El Prat Airport (LEBL) |
| Time | Latitude | Longitude | Altitude | Speed | Heading |
|---|---|---|---|---|---|
| 2026-05-04 08:08 | 43.13636 | -28.43906 | 37405 ft | 489 kts | 83° |
| 2026-05-04 08:08 | 43.14010 | -28.39251 | 37404 ft | 489 kts | 83° |
| 2026-05-04 08:11 | 43.17267 | -27.97525 | 37399 ft | 490 kts | 83° |
| 2026-05-04 08:11 | 43.18319 | -27.83614 | 37393 ft | 490 kts | 84° |
| 2026-05-04 08:12 | 43.19009 | -27.74355 | 37396 ft | 490 kts | 84° |
| 2026-05-04 08:12 | 43.19692 | -27.65092 | 37397 ft | 490 kts | 84° |
| 2026-05-04 08:13 | 43.20371 | -27.55756 | 37397 ft | 490 kts | 84° |
| 2026-05-04 08:13 | 43.21040 | -27.46492 | 37391 ft | 491 kts | 84° |
| 2026-05-04 08:14 | 43.21706 | -27.37154 | 37392 ft | 491 kts | 84° |
| 2026-05-04 08:16 | 43.24278 | -26.99954 | 37390 ft | 491 kts | 84° |
| 2026-05-04 08:16 | 43.24907 | -26.90593 | 37388 ft | 491 kts | 84° |
| 2026-05-04 08:17 | 43.25523 | -26.81295 | 37390 ft | 492 kts | 84° |
| 2026-05-04 08:17 | 43.26136 | -26.71933 | 37385 ft | 492 kts | 84° |
| 2026-05-04 08:19 | 43.28507 | -26.34531 | 37380 ft | 493 kts | 84° |
| 2026-05-04 08:20 | 43.28988 | -26.26702 | 37381 ft | 493 kts | 84° |
| 2026-05-04 08:20 | 43.29559 | -26.17296 | 37379 ft | 493 kts | 84° |
| 2026-05-04 08:21 | 43.30116 | -26.07966 | 37383 ft | 493 kts | 84° |
| 2026-05-04 08:21 | 43.30667 | -25.98616 | 37378 ft | 493 kts | 84° |
| 2026-05-04 08:22 | 43.31215 | -25.89201 | 37379 ft | 493 kts | 84° |
| 2026-05-04 08:24 | 43.33320 | -25.51650 | 37371 ft | 494 kts | 85° |
| 2026-05-04 08:24 | 43.33830 | -25.42205 | 37367 ft | 495 kts | 85° |
| 2026-05-04 08:25 | 43.34330 | -25.32815 | 37370 ft | 495 kts | 85° |
| 2026-05-04 08:25 | 43.34828 | -25.23335 | 37363 ft | 496 kts | 85° |
| 2026-05-04 08:27 | 43.36728 | -24.85528 | 37351 ft | 498 kts | 85° |
| 2026-05-04 08:28 | 43.37188 | -24.76012 | 37353 ft | 498 kts | 85° |
| 2026-05-04 08:28 | 43.37636 | -24.66543 | 37349 ft | 498 kts | 85° |
| 2026-05-04 08:29 | 43.38079 | -24.56997 | 37354 ft | 498 kts | 85° |
| 2026-05-04 08:31 | 43.39771 | -24.18921 | 37351 ft | 500 kts | 85° |
| 2026-05-04 08:33 | 43.41343 | -23.80629 | 37333 ft | 502 kts | 85° |
| 2026-05-04 08:35 | 43.42616 | -23.47109 | 38985 ft | 498 kts | 85° |
| 2026-05-04 08:35 | 43.42789 | -23.42330 | 39244 ft | 498 kts | 85° |
| 2026-05-04 08:35 | 43.43129 | -23.32783 | 39317 ft | 502 kts | 85° |
| 2026-05-04 08:37 | 43.44253 | -22.99486 | 39327 ft | 495 kts | 85° |
| 2026-05-04 08:38 | 43.44555 | -22.90037 | 39319 ft | 495 kts | 85° |
| 2026-05-04 08:38 | 43.44847 | -22.80593 | 39317 ft | 496 kts | 85° |
| 2026-05-04 08:40 | 43.45952 | -22.42482 | 39314 ft | 501 kts | 85° |
| 2026-05-04 08:41 | 43.46211 | -22.32842 | 39316 ft | 502 kts | 85° |
| 2026-05-04 08:41 | 43.46460 | -22.23267 | 39321 ft | 503 kts | 85° |
| 2026-05-04 08:42 | 43.46703 | -22.13632 | 39314 ft | 503 kts | 85° |
| 2026-05-04 08:42 | 43.46938 | -22.04023 | 39309 ft | 503 kts | 85° |
| 2026-05-04 08:43 | 43.47163 | -21.94449 | 39302 ft | 503 kts | 85° |
| 2026-05-04 08:43 | 43.47381 | -21.84810 | 39316 ft | 502 kts | 85° |
| 2026-05-04 08:44 | 43.47591 | -21.75224 | 39295 ft | 502 kts | 85° |
| 2026-05-04 08:46 | 43.48349 | -21.36886 | 39298 ft | 501 kts | 85° |
| 2026-05-04 08:46 | 43.48518 | -21.27315 | 39297 ft | 501 kts | 85° |
| 2026-05-04 08:47 | 43.48679 | -21.17688 | 39295 ft | 501 kts | 86° |
| 2026-05-04 08:47 | 43.48831 | -21.08148 | 39312 ft | 501 kts | 85° |
| 2026-05-04 08:48 | 43.48979 | -20.98523 | 39297 ft | 501 kts | 85° |
| 2026-05-04 08:48 | 43.49115 | -20.88976 | 39292 ft | 501 kts | 86° |
| 2026-05-04 08:49 | 43.49244 | -20.79343 | 39290 ft | 501 kts | 86° |
| 2026-05-04 08:50 | 43.49633 | -20.45787 | 39289 ft | 501 kts | 86° |
| 2026-05-04 08:51 | 43.49726 | -20.36224 | 39291 ft | 500 kts | 86° |
| 2026-05-04 08:51 | 43.49811 | -20.26621 | 39300 ft | 501 kts | 86° |
| 2026-05-04 08:52 | 43.49887 | -20.17052 | 39293 ft | 501 kts | 86° |
| 2026-05-04 08:52 | 43.49956 | -20.07433 | 39287 ft | 501 kts | 86° |
| 2026-05-04 08:54 | 43.48715 | -19.69060 | 39284 ft | 503 kts | 90° |
| 2026-05-04 08:55 | 43.48290 | -19.59438 | 39280 ft | 503 kts | 90° |
| 2026-05-04 08:55 | 43.47866 | -19.49863 | 39290 ft | 503 kts | 90° |
| 2026-05-04 09:01 | 43.42885 | -18.48810 | 39265 ft | 505 kts | 91° |
| 2026-05-04 09:01 | 43.42362 | -18.39163 | 39273 ft | 505 kts | 91° |
| 2026-05-04 09:02 | 43.41833 | -18.29557 | 39266 ft | 506 kts | 91° |
| 2026-05-04 09:02 | 43.41291 | -18.19869 | 39268 ft | 506 kts | 91° |
| 2026-05-04 09:03 | 43.40746 | -18.10252 | 39262 ft | 506 kts | 91° |
| 2026-05-04 09:03 | 43.40193 | -18.00643 | 39266 ft | 506 kts | 91° |
| 2026-05-04 09:04 | 43.39627 | -17.90975 | 39260 ft | 506 kts | 91° |
| 2026-05-04 09:04 | 43.39054 | -17.81314 | 39252 ft | 506 kts | 91° |
| 2026-05-04 09:05 | 43.38474 | -17.71669 | 39267 ft | 506 kts | 91° |
| 2026-05-04 09:05 | 43.37889 | -17.62085 | 39254 ft | 506 kts | 91° |
| 2026-05-04 09:06 | 43.37293 | -17.52448 | 39246 ft | 505 kts | 91° |
| 2026-05-04 09:08 | 43.34834 | -17.13991 | 39236 ft | 505 kts | 92° |
| 2026-05-04 09:08 | 43.34199 | -17.04409 | 39254 ft | 505 kts | 92° |
| 2026-05-04 09:09 | 43.33553 | -16.94776 | 39230 ft | 505 kts | 92° |
| 2026-05-04 09:09 | 43.32906 | -16.85198 | 39229 ft | 505 kts | 92° |
| 2026-05-04 09:10 | 43.32244 | -16.75554 | 39226 ft | 506 kts | 92° |
| 2026-05-04 09:10 | 43.31575 | -16.65939 | 39241 ft | 506 kts | 92° |
| 2026-05-04 09:11 | 43.30899 | -16.56320 | 39229 ft | 507 kts | 92° |
| 2026-05-04 09:11 | 43.30216 | -16.46729 | 39223 ft | 507 kts | 92° |
| 2026-05-04 09:12 | 43.29520 | -16.37078 | 39224 ft | 507 kts | 92° |
| 2026-05-04 09:14 | 43.26785 | -16.00195 | 39208 ft | 507 kts | 93° |
| 2026-05-04 09:14 | 43.26050 | -15.90544 | 39214 ft | 508 kts | 93° |
| 2026-05-04 09:15 | 43.25305 | -15.80892 | 39208 ft | 508 kts | 93° |
| 2026-05-04 09:15 | 43.24556 | -15.71277 | 39204 ft | 508 kts | 93° |
| 2026-05-04 09:17 | 43.21077 | -15.27933 | 39197 ft | 509 kts | 94° |
| 2026-05-04 09:18 | 43.20278 | -15.18260 | 39180 ft | 509 kts | 94° |
| 2026-05-04 09:18 | 43.19476 | -15.08661 | 39190 ft | 509 kts | 94° |
| 2026-05-04 09:19 | 43.18663 | -14.99039 | 39194 ft | 509 kts | 94° |
| 2026-05-04 09:19 | 43.17838 | -14.89364 | 39204 ft | 510 kts | 94° |
| 2026-05-04 09:20 | 43.17011 | -14.79752 | 39191 ft | 510 kts | 94° |
| 2026-05-04 09:20 | 43.16171 | -14.70081 | 39187 ft | 510 kts | 94° |
| 2026-05-04 09:21 | 43.15327 | -14.60462 | 39185 ft | 511 kts | 94° |
| 2026-05-04 09:21 | 43.14466 | -14.50759 | 39191 ft | 511 kts | 94° |
| 2026-05-04 09:22 | 43.13602 | -14.41120 | 39176 ft | 511 kts | 95° |
| 2026-05-04 09:22 | 43.12731 | -14.31477 | 39172 ft | 512 kts | 95° |
| 2026-05-04 09:23 | 43.11845 | -14.21779 | 39167 ft | 512 kts | 95° |
| 2026-05-04 09:23 | 43.10957 | -14.12141 | 39170 ft | 512 kts | 95° |
| 2026-05-04 09:25 | 43.07301 | -13.73407 | 39166 ft | 514 kts | 95° |
| 2026-05-04 09:26 | 43.06367 | -13.63737 | 39158 ft | 514 kts | 95° |
| 2026-05-04 09:26 | 43.05427 | -13.54074 | 39157 ft | 514 kts | 95° |
| 2026-05-04 09:27 | 43.04472 | -13.44361 | 39163 ft | 514 kts | 96° |
| 2026-05-04 09:27 | 43.03514 | -13.34696 | 39146 ft | 514 kts | 96° |
| 2026-05-04 09:28 | 43.02541 | -13.24968 | 39151 ft | 514 kts | 96° |
| 2026-05-04 09:28 | 43.01566 | -13.15314 | 39147 ft | 515 kts | 96° |
| 2026-05-04 09:29 | 43.00576 | -13.05594 | 39160 ft | 515 kts | 96° |
| 2026-05-04 09:29 | 42.99915 | -12.95916 | 39157 ft | 513 kts | 88° |
| 2026-05-04 09:30 | 42.99965 | -12.86205 | 39142 ft | 512 kts | 87° |
| 2026-05-04 09:30 | 43.00052 | -12.76430 | 39154 ft | 512 kts | 87° |
| 2026-05-04 09:31 | 43.00095 | -12.66723 | 39137 ft | 513 kts | 88° |
| 2026-05-04 09:31 | 43.00104 | -12.57013 | 39131 ft | 513 kts | 88° |
| 2026-05-04 09:32 | 43.00098 | -12.47246 | 39125 ft | 513 kts | 88° |
| 2026-05-04 09:34 | 43.00006 | -12.08351 | 39128 ft | 512 kts | 88° |
| 2026-05-04 09:34 | 42.99962 | -11.98609 | 39117 ft | 512 kts | 89° |
| 2026-05-04 09:35 | 42.99912 | -11.88925 | 39114 ft | 512 kts | 89° |
| 2026-05-04 09:35 | 42.99851 | -11.79165 | 39125 ft | 512 kts | 89° |
| 2026-05-04 09:37 | 42.99531 | -11.40303 | 39115 ft | 513 kts | 89° |
| 2026-05-04 09:38 | 42.99431 | -11.30535 | 39123 ft | 513 kts | 89° |
| 2026-05-04 09:38 | 42.99321 | -11.20829 | 39117 ft | 513 kts | 89° |
| 2026-05-04 09:39 | 42.99204 | -11.11109 | 39108 ft | 513 kts | 90° |
| 2026-05-04 09:39 | 42.99079 | -11.01390 | 39106 ft | 513 kts | 90° |
| 2026-05-04 09:40 | 42.98945 | -10.91618 | 39115 ft | 513 kts | 90° |
| 2026-05-04 09:40 | 42.98804 | -10.81906 | 39102 ft | 513 kts | 90° |
| 2026-05-04 09:42 | 42.98153 | -10.43064 | 39098 ft | 512 kts | 90° |
| 2026-05-04 09:43 | 42.97970 | -10.33317 | 39097 ft | 512 kts | 90° |
| 2026-05-04 09:43 | 42.97779 | -10.23559 | 39092 ft | 512 kts | 91° |
| 2026-05-04 09:44 | 42.97580 | -10.13873 | 39088 ft | 512 kts | 91° |
| 2026-05-04 09:46 | 42.96699 | -9.74982 | 39090 ft | 514 kts | 91° |
| 2026-05-04 09:46 | 42.96455 | -9.65186 | 39087 ft | 514 kts | 91° |
| 2026-05-04 09:47 | 42.96206 | -9.55458 | 39084 ft | 515 kts | 91° |
| 2026-05-04 09:49 | 42.95123 | -9.16420 | 39079 ft | 514 kts | 92° |
| 2026-05-04 09:51 | 42.94068 | -8.82352 | 39071 ft | 514 kts | 92° |
| 2026-05-04 09:51 | 42.93745 | -8.72568 | 39072 ft | 514 kts | 92° |
| 2026-05-04 09:52 | 42.93417 | -8.62849 | 39071 ft | 514 kts | 93° |
| 2026-05-04 09:52 | 42.93079 | -8.53087 | 39078 ft | 514 kts | 93° |
| 2026-05-04 09:53 | 42.92737 | -8.43391 | 39073 ft | 514 kts | 93° |
| 2026-05-04 09:53 | 42.92250 | -8.33648 | 39060 ft | 514 kts | 95° |
| 2026-05-04 09:54 | 42.91611 | -8.23998 | 39075 ft | 513 kts | 96° |
| 2026-05-04 09:54 | 42.90961 | -8.14274 | 39076 ft | 512 kts | 96° |
| 2026-05-04 09:55 | 42.90333 | -8.04612 | 39079 ft | 512 kts | 95° |
| 2026-05-04 09:55 | 42.89711 | -7.94978 | 39075 ft | 512 kts | 96° |
| 2026-05-04 09:56 | 42.89077 | -7.85265 | 39067 ft | 512 kts | 96° |
| 2026-05-04 09:56 | 42.88440 | -7.75638 | 39075 ft | 512 kts | 96° |
| 2026-05-04 09:57 | 42.87788 | -7.65951 | 39076 ft | 511 kts | 96° |
| 2026-05-04 09:57 | 42.87133 | -7.56327 | 39075 ft | 512 kts | 96° |
| 2026-05-04 09:58 | 42.86470 | -7.46709 | 39074 ft | 512 kts | 96° |
| 2026-05-04 09:58 | 42.85793 | -7.37011 | 39080 ft | 512 kts | 96° |
| 2026-05-04 10:00 | 42.83019 | -6.98460 | 39069 ft | 511 kts | 97° |
| 2026-05-04 10:04 | 42.77856 | -6.31115 | 39040 ft | 511 kts | 98° |
| 2026-05-04 10:04 | 42.77088 | -6.21514 | 39020 ft | 512 kts | 98° |
| 2026-05-04 10:05 | 42.76310 | -6.11899 | 39016 ft | 511 kts | 98° |
| 2026-05-04 10:05 | 42.75527 | -6.02327 | 39024 ft | 511 kts | 98° |
| 2026-05-04 10:06 | 42.74731 | -5.92693 | 39021 ft | 510 kts | 98° |
| 2026-05-04 10:06 | 42.73932 | -5.83127 | 38996 ft | 511 kts | 98° |
| 2026-05-04 10:08 | 42.71200 | -5.51149 | 39007 ft | 511 kts | 99° |
| 2026-05-04 10:08 | 42.70368 | -5.41590 | 38997 ft | 511 kts | 99° |
| 2026-05-04 10:09 | 42.69533 | -5.31956 | 39002 ft | 511 kts | 99° |
| 2026-05-04 10:09 | 42.68700 | -5.22408 | 39009 ft | 511 kts | 99° |
| 2026-05-04 10:10 | 42.67852 | -5.12838 | 39012 ft | 511 kts | 99° |
| 2026-05-04 10:10 | 42.66990 | -5.03207 | 39002 ft | 512 kts | 99° |
| 2026-05-04 10:11 | 42.66120 | -4.93652 | 38991 ft | 511 kts | 99° |
| 2026-05-04 10:11 | 42.65213 | -4.84034 | 39010 ft | 512 kts | 100° |
| 2026-05-04 10:12 | 42.64319 | -4.74468 | 39007 ft | 512 kts | 100° |
| 2026-05-04 10:12 | 42.63418 | -4.64850 | 39020 ft | 512 kts | 100° |
| 2026-05-04 10:13 | 42.62513 | -4.55310 | 39006 ft | 512 kts | 100° |
| 2026-05-04 10:13 | 42.61594 | -4.45718 | 39015 ft | 512 kts | 100° |
| 2026-05-04 10:14 | 42.60664 | -4.36129 | 39019 ft | 512 kts | 100° |
| 2026-05-04 10:16 | 42.56872 | -3.97783 | 39022 ft | 514 kts | 101° |
| 2026-05-04 10:16 | 42.55908 | -3.88219 | 39025 ft | 513 kts | 101° |
| 2026-05-04 10:17 | 42.54939 | -3.78682 | 39007 ft | 512 kts | 101° |
| 2026-05-04 10:19 | 42.50957 | -3.40403 | 39024 ft | 513 kts | 102° |
| 2026-05-04 10:19 | 42.49937 | -3.30789 | 39018 ft | 513 kts | 102° |
| 2026-05-04 10:20 | 42.48919 | -3.21264 | 39024 ft | 513 kts | 102° |
| 2026-05-04 10:20 | 42.47885 | -3.11693 | 39021 ft | 512 kts | 102° |
| 2026-05-04 10:21 | 42.46848 | -3.02165 | 39010 ft | 513 kts | 102° |
| 2026-05-04 10:21 | 42.45804 | -2.92642 | 39015 ft | 513 kts | 102° |
| 2026-05-04 10:22 | 42.43452 | -2.78564 | 39010 ft | 509 kts | 110° |
| 2026-05-04 10:23 | 42.41497 | -2.69342 | 38988 ft | 509 kts | 110° |
| 2026-05-04 10:25 | 42.33810 | -2.32428 | 38971 ft | 512 kts | 110° |
| 2026-05-04 10:25 | 42.31861 | -2.23138 | 38965 ft | 512 kts | 110° |
| 2026-05-04 10:26 | 42.29917 | -2.13916 | 38977 ft | 513 kts | 110° |
| 2026-05-04 10:26 | 42.27951 | -2.04623 | 38973 ft | 513 kts | 110° |
| 2026-05-04 10:27 | 42.25976 | -1.95328 | 38972 ft | 514 kts | 111° |
| 2026-05-04 10:27 | 42.24001 | -1.86088 | 38968 ft | 514 kts | 111° |
| 2026-05-04 10:28 | 42.22020 | -1.76860 | 38961 ft | 514 kts | 111° |
| 2026-05-04 10:28 | 42.20018 | -1.67580 | 38969 ft | 513 kts | 111° |
| 2026-05-04 10:29 | 42.18024 | -1.58379 | 38953 ft | 513 kts | 111° |
| 2026-05-04 10:29 | 42.16013 | -1.49133 | 38951 ft | 512 kts | 111° |
| 2026-05-04 10:30 | 42.14010 | -1.39966 | 38960 ft | 511 kts | 111° |
| 2026-05-04 10:30 | 42.11990 | -1.30768 | 38959 ft | 510 kts | 111° |
| 2026-05-04 10:31 | 42.09981 | -1.21653 | 38970 ft | 510 kts | 111° |
| 2026-05-04 10:32 | 42.02831 | -0.89700 | 38964 ft | 510 kts | 112° |
| 2026-05-04 10:33 | 42.00782 | -0.80610 | 38963 ft | 509 kts | 112° |
| 2026-05-04 10:33 | 41.98729 | -0.71476 | 38969 ft | 508 kts | 112° |
| 2026-05-04 10:34 | 41.96685 | -0.62419 | 38975 ft | 507 kts | 112° |
| 2026-05-04 10:34 | 41.94637 | -0.53396 | 38985 ft | 507 kts | 112° |
| 2026-05-04 10:35 | 41.92568 | -0.44326 | 38992 ft | 506 kts | 112° |
| 2026-05-04 10:35 | 41.90505 | -0.35306 | 38990 ft | 506 kts | 112° |
| 2026-05-04 10:36 | 41.88435 | -0.26292 | 38995 ft | 507 kts | 112° |
| 2026-05-04 10:36 | 41.86342 | -0.17222 | 38988 ft | 507 kts | 112° |
| 2026-05-04 10:37 | 41.84246 | -0.08172 | 38988 ft | 507 kts | 112° |
| 2026-05-04 10:37 | 41.82151 | 0.00827 | 38969 ft | 507 kts | 113° |
| 2026-05-04 10:39 | 41.74683 | 0.32294 | 38964 ft | 507 kts | 114° |
| 2026-05-04 10:40 | 41.72529 | 0.41253 | 38953 ft | 507 kts | 114° |
| 2026-05-04 10:40 | 41.70378 | 0.50294 | 38963 ft | 508 kts | 113° |
| 2026-05-04 10:41 | 41.68255 | 0.59294 | 38966 ft | 509 kts | 113° |
| 2026-05-04 10:41 | 41.66140 | 0.68333 | 38986 ft | 512 kts | 113° |
| 2026-05-04 10:42 | 41.64017 | 0.77474 | 38947 ft | 515 kts | 113° |
| 2026-05-04 10:42 | 41.61922 | 0.86584 | 38964 ft | 514 kts | 112° |
| 2026-05-04 10:43 | 41.59837 | 0.95751 | 38974 ft | 513 kts | 112° |
| 2026-05-04 10:44 | 41.52793 | 1.27455 | 38952 ft | 495 kts | 112° |
| 2026-05-04 10:45 | 41.51858 | 1.31829 | 38959 ft | 482 kts | 112° |
| 2026-05-04 10:45 | 41.50058 | 1.40377 | 38962 ft | 479 kts | 111° |
| 2026-05-04 10:46 | 41.48274 | 1.48964 | 38968 ft | 479 kts | 111° |
| 2026-05-04 10:46 | 41.46511 | 1.57524 | 38943 ft | 482 kts | 111° |
| 2026-05-04 10:47 | 41.44749 | 1.66163 | 38956 ft | 481 kts | 111° |
| 2026-05-04 10:47 | 41.43015 | 1.74790 | 38963 ft | 481 kts | 111° |
| 2026-05-04 10:49 | 41.36435 | 2.08792 | 38957 ft | 452 kts | 110° |
| 2026-05-04 10:50 | 41.34951 | 2.16936 | 38966 ft | 451 kts | 110° |
| 2026-05-04 10:51 | 41.29719 | 2.46125 | 38982 ft | 487 kts | 110° |
| 2026-05-04 10:52 | 41.28924 | 2.50548 | 38975 ft | 493 kts | 110° |
| 2026-05-04 10:52 | 41.27342 | 2.59396 | 38949 ft | 494 kts | 109° |
| 2026-05-04 10:54 | 41.21244 | 2.94737 | 38972 ft | 488 kts | 108° |
| 2026-05-04 10:56 | 41.15953 | 3.26574 | 39007 ft | 527 kts | 108° |
| 2026-05-04 10:56 | 41.15164 | 3.31333 | 38988 ft | 529 kts | 107° |
| 2026-05-04 10:57 | 41.13607 | 3.40826 | 38978 ft | 528 kts | 107° |
| 2026-05-04 10:57 | 41.12065 | 3.50357 | 38980 ft | 526 kts | 107° |
| 2026-05-04 10:58 | 41.10548 | 3.59871 | 38985 ft | 524 kts | 107° |
| 2026-05-04 10:58 | 41.09069 | 3.69277 | 39007 ft | 523 kts | 107° |
| 2026-05-04 10:59 | 41.07603 | 3.78721 | 38998 ft | 524 kts | 107° |
| 2026-05-04 10:59 | 41.06394 | 3.86600 | 38963 ft | 523 kts | 106° |
| 2026-05-04 11:00 | 41.04937 | 3.97645 | 38988 ft | 526 kts | 97° |
| 2026-05-04 11:01 | 41.14509 | 4.26580 | 38988 ft | 530 kts | 35° |
| 2026-05-04 11:02 | 41.17492 | 4.29402 | 38445 ft | 525 kts | 26° |
| 2026-05-04 11:02 | 41.20763 | 4.31650 | 37547 ft | 529 kts | 17° |
| 2026-05-04 11:05 | 41.52749 | 4.02543 | 28732 ft | 427 kts | 276° |
| 2026-05-04 11:06 | 41.53361 | 3.98684 | 28035 ft | 421 kts | 276° |
| 2026-05-04 11:06 | 41.53947 | 3.94922 | 27350 ft | 415 kts | 276° |
| 2026-05-04 11:06 | 41.54526 | 3.91148 | 26688 ft | 410 kts | 276° |
| 2026-05-04 11:06 | 41.55086 | 3.87423 | 26030 ft | 406 kts | 276° |
| 2026-05-04 11:08 | 41.58471 | 3.61110 | 24239 ft | 404 kts | 265° |
| 2026-05-04 11:10 | 41.55133 | 3.36003 | 19143 ft | 385 kts | 256° |
| 2026-05-04 11:12 | 41.51280 | 3.12077 | 14539 ft | 369 kts | 256° |
| 2026-05-04 11:12 | 41.50738 | 3.08726 | 13924 ft | 368 kts | 256° |
| 2026-05-04 11:12 | 41.50196 | 3.05381 | 13340 ft | 365 kts | 256° |
| 2026-05-04 11:12 | 41.49661 | 3.02087 | 12806 ft | 361 kts | 256° |
| 2026-05-04 11:13 | 41.49143 | 2.98904 | 12664 ft | 343 kts | 256° |
| 2026-05-04 11:13 | 41.48659 | 2.95919 | 12461 ft | 315 kts | 255° |
| 2026-05-04 11:13 | 41.48213 | 2.93174 | 12264 ft | 291 kts | 255° |
| 2026-05-04 11:13 | 41.47798 | 2.90640 | 11891 ft | 276 kts | 255° |
| 2026-05-04 11:14 | 41.47660 | 2.89797 | 11716 ft | 273 kts | 255° |
| 2026-05-04 11:16 | 41.43892 | 2.67019 | 7551 ft | 260 kts | 255° |
| 2026-05-04 11:16 | 41.43505 | 2.64685 | 7249 ft | 255 kts | 255° |
| 2026-05-04 11:16 | 41.43124 | 2.62393 | 6926 ft | 251 kts | 255° |
| 2026-05-04 11:17 | 41.42748 | 2.60131 | 6610 ft | 247 kts | 255° |
| 2026-05-04 11:17 | 41.42382 | 2.57936 | 6309 ft | 243 kts | 256° |
| 2026-05-04 11:19 | 41.39790 | 2.42457 | 4120 ft | 242 kts | 256° |
| 2026-05-04 11:19 | 41.39424 | 2.40278 | 3812 ft | 241 kts | 257° |
| 2026-05-04 11:19 | 41.39065 | 2.38145 | 3686 ft | 232 kts | 257° |
| 2026-05-04 11:19 | 41.38717 | 2.36093 | 3554 ft | 223 kts | 257° |
| 2026-05-04 11:20 | 41.38377 | 2.34092 | 3474 ft | 220 kts | 257° |
| 2026-05-04 11:20 | 41.38019 | 2.32104 | 3378 ft | 218 kts | 251° |
| 2026-05-04 11:20 | 41.37419 | 2.30242 | 3202 ft | 222 kts | 244° |
| 2026-05-04 11:20 | 41.36750 | 2.28409 | 2919 ft | 221 kts | 245° |
| 2026-05-04 11:22 | 41.32860 | 2.17061 | 1165 ft | 160 kts | 242° |
| 2026-05-04 11:22 | 41.32413 | 2.15760 | 924 ft | 147 kts | 244° |
| 2026-05-04 11:23 | 41.32000 | 2.14548 | 769 ft | 144 kts | 242° |
| 2026-05-04 11:23 | 41.31586 | 2.13338 | 580 ft | 142 kts | 242° |
| 2026-05-04 11:24 | 41.29732 | 2.07973 | 24 ft | 32 kts | 231° |
| 2026-05-04 11:25 | 41.29625 | 2.07848 | 21 ft | 12 kts | 208° |